Time;durP1;ratioP1;P1;durP2;ratioP2;P2;SDS_P1;SDS_P2;PMS_P1;PMS_P2;Temp;Humidity;BMP_temperature;BMP_pressure;BME280_temperature;BME280_humidity;BME280_pressure;Samples;Min_cycle;Max_cycle;Signal;HPM_P1;HPM_P2
2021/05/16 00:02:02;;;;;;;1.98;1.15;;;12.60;99.50;;;;;;4951684;28;20035;-76
2021/05/16 00:04:28;;;;;;;3.17;1.60;;;12.60;99.60;;;;;;4952986;28;20031;-77
2021/05/16 00:06:53;;;;;;;2.70;1.35;;;12.50;99.60;;;;;;4952576;28;20070;-76
2021/05/16 00:09:19;;;;;;;12.05;1.30;;;12.50;99.70;;;;;;4951753;28;20048;-78
2021/05/16 00:11:45;;;;;;;4.57;1.38;;;12.50;99.70;;;;;;4954020;29;20027;-77
2021/05/16 00:14:11;;;;;;;2.88;1.30;;;12.50;99.70;;;;;;4968281;28;20054;-76
2021/05/16 00:16:37;;;;;;;2.40;1.20;;;12.50;99.70;;;;;;4952713;28;20035;-79
2021/05/16 00:19:04;;;;;;;5.93;1.67;;;12.50;99.80;;;;;;4952797;28;20058;-76
2021/05/16 00:21:30;;;;;;;3.00;1.40;;;12.50;99.80;;;;;;4952683;28;20046;-77
2021/05/16 00:23:55;;;;;;;6.25;1.20;;;12.40;99.80;;;;;;4952393;28;20023;-76
2021/05/16 00:26:21;;;;;;;2.22;1.33;;;12.40;99.80;;;;;;4953871;28;20162;-76
2021/05/16 00:28:47;;;;;;;2.28;1.30;;;12.40;99.90;;;;;;4952009;28;20047;-76
2021/05/16 00:31:12;;;;;;;6.32;1.58;;;12.30;99.90;;;;;;4952266;28;20503;-77
2021/05/16 00:33:38;;;;;;;2.50;1.40;;;12.40;99.90;;;;;;4952674;28;20130;-77
2021/05/16 00:36:04;;;;;;;1.67;1.50;;;12.30;99.90;;;;;;4951251;28;20046;-77
2021/05/16 00:38:30;;;;;;;4.68;1.48;;;12.30;99.90;;;;;;4934670;29;20083;-76
2021/05/16 00:40:55;;;;;;;2.22;1.42;;;12.30;99.90;;;;;;4933013;28;20075;-77
2021/05/16 00:43:21;;;;;;;3.40;1.55;;;12.30;99.90;;;;;;4944250;28;20483;-76
2021/05/16 00:45:48;;;;;;;2.22;1.55;;;12.30;99.90;;;;;;4951966;28;20043;-76
2021/05/16 00:48:15;;;;;;;2.53;1.67;;;12.30;99.90;;;;;;4952031;28;20023;-76
2021/05/16 00:50:44;;;;;;;4.50;1.48;;;12.30;99.90;;;;;;4953751;28;20054;-76
2021/05/16 00:53:10;;;;;;;3.20;1.42;;;12.30;99.90;;;;;;4952221;28;20070;-77
2021/05/16 00:55:37;;;;;;;1.95;1.50;;;12.30;99.90;;;;;;4950566;28;20118;-76
2021/05/16 00:58:04;;;;;;;2.78;1.70;;;12.30;99.90;;;;;;4952123;28;20043;-78
2021/05/16 01:00:40;;;;;;;6.30;1.83;;;12.30;99.90;;;;;;4952252;28;20051;-78
2021/05/16 01:03:07;;;;;;;5.22;1.67;;;12.40;99.90;;;;;;4951970;28;20455;-75
2021/05/16 01:05:33;;;;;;;2.00;1.50;;;12.30;99.90;;;;;;4953407;29;20058;-76
2021/05/16 01:07:58;;;;;;;3.70;2.03;;;12.40;99.90;;;;;;4950822;28;20308;-76
2021/05/16 01:10:24;;;;;;;4.13;1.48;;;12.40;99.90;;;;;;4951780;28;20056;-76
2021/05/16 01:12:53;;;;;;;5.43;1.42;;;12.40;99.90;;;;;;4943878;28;20035;-76
2021/05/16 01:15:21;;;;;;;3.03;1.55;;;12.40;99.90;;;;;;4935600;28;20047;-77
2021/05/16 01:17:47;;;;;;;;;;;12.40;99.90;;;;;;4953755;29;20019;-76
2021/05/16 01:20:16;;;;;;;1.65;1.13;;;12.40;99.90;;;;;;4966450;28;19922;-76
2021/05/16 01:22:42;;;;;;;3.65;1.50;;;12.40;99.90;;;;;;4951838;28;20256;-75
2021/05/16 01:25:09;;;;;;;5.43;1.80;;;12.30;99.90;;;;;;4951463;28;20194;-75
2021/05/16 01:27:35;;;;;;;5.80;1.55;;;12.40;99.90;;;;;;4951459;28;20085;-76
2021/05/16 01:30:01;;;;;;;1.83;1.33;;;12.40;99.90;;;;;;4950748;28;20097;-75
2021/05/16 01:32:27;;;;;;;2.53;1.50;;;12.40;99.90;;;;;;4933919;29;20508;-76
2021/05/16 01:34:52;;;;;;;7.65;1.80;;;12.40;99.90;;;;;;4949400;28;20071;-76
2021/05/16 01:37:18;;;;;;;2.78;1.23;;;12.50;99.90;;;;;;4989252;28;20046;-75
2021/05/16 01:39:47;;;;;;;7.28;1.45;;;12.50;99.90;;;;;;4990109;28;20034;-76
2021/05/16 01:42:13;;;;;;;5.43;1.80;;;12.50;99.90;;;;;;4990335;28;20050;-74
2021/05/16 01:44:38;;;;;;;3.85;1.50;;;12.50;99.90;;;;;;4991789;28;20068;-76
2021/05/16 01:47:05;;;;;;;2.10;1.75;;;12.50;99.90;;;;;;4990285;28;20042;-75
2021/05/16 01:49:42;;;;;;;5.65;1.70;;;12.60;99.90;;;;;;4989896;28;20053;-76
2021/05/16 01:52:10;;;;;;;2.92;1.58;;;12.60;99.90;;;;;;4990033;28;20440;-74
2021/05/16 01:54:35;;;;;;;2.65;1.35;;;12.60;99.90;;;;;;4988911;28;20034;-73
2021/05/16 01:57:03;;;;;;;6.90;1.75;;;12.60;99.90;;;;;;4990179;28;20570;-75
2021/05/16 01:59:28;;;;;;;2.40;1.30;;;12.60;99.90;;;;;;4991599;28;20022;-75
2021/05/16 02:01:59;;;;;;;1.80;1.30;;;12.60;99.90;;;;;;4988787;28;20272;-74
2021/05/16 02:04:29;;;;;;;3.13;1.45;;;12.70;99.90;;;;;;4990030;28;20136;-74
2021/05/16 02:06:56;;;;;;;3.35;1.58;;;12.60;99.90;;;;;;4989883;28;20038;-74
2021/05/16 02:09:21;;;;;;;6.47;1.70;;;12.60;99.90;;;;;;4989373;28;20043;-75
2021/05/16 02:11:48;;;;;;;2.58;1.50;;;12.70;99.90;;;;;;4991181;28;20455;-75
2021/05/16 02:14:29;;;;;;;2.08;1.40;;;12.70;99.80;;;;;;4989638;28;20372;-77
2021/05/16 02:16:56;;;;;;;2.83;1.58;;;12.70;99.80;;;;;;4990152;28;20373;-77
2021/05/16 02:19:22;;;;;;;2.28;1.60;;;12.60;99.80;;;;;;4989868;28;20045;-76
2021/05/16 02:21:48;;;;;;;3.90;1.42;;;12.60;99.90;;;;;;4990474;28;20026;-74
2021/05/16 02:24:14;;;;;;;2.92;1.63;;;12.60;99.90;;;;;;4991211;28;20459;-77
2021/05/16 02:26:40;;;;;;;5.10;1.85;;;12.60;99.80;;;;;;4993801;28;20034;-75
2021/05/16 02:29:07;;;;;;;2.00;1.40;;;12.60;99.80;;;;;;4993248;28;20050;-76
2021/05/16 02:31:33;;;;;;;1.92;1.48;;;12.60;99.90;;;;;;4992359;28;20038;-76
2021/05/16 02:33:59;;;;;;;2.80;1.55;;;12.60;99.90;;;;;;4992454;28;20122;-76
2021/05/16 02:36:25;;;;;;;9.93;1.83;;;12.50;99.90;;;;;;4993153;28;20109;-77
2021/05/16 02:38:51;;;;;;;4.40;1.67;;;12.60;99.90;;;;;;4994982;28;20415;-75
2021/05/16 02:41:17;;;;;;;3.97;1.83;;;12.60;99.70;;;;;;4993213;28;20156;-75
2021/05/16 02:43:43;;;;;;;6.75;1.60;;;12.60;99.70;;;;;;4993579;28;20062;-76
2021/05/16 02:46:09;;;;;;;3.78;1.80;;;12.50;99.80;;;;;;4993112;28;20038;-75
2021/05/16 02:48:35;;;;;;;5.38;1.80;;;12.50;99.80;;;;;;4993239;28;20034;-75
2021/05/16 02:51:00;;;;;;;4.47;1.92;;;12.50;99.70;;;;;;4992807;28;20019;-75
2021/05/16 02:53:26;;;;;;;4.18;1.90;;;12.50;99.80;;;;;;4994439;28;20061;-76
2021/05/16 02:55:52;;;;;;;6.22;1.73;;;12.50;99.80;;;;;;4992794;28;20034;-75
2021/05/16 02:58:18;;;;;;;10.43;1.83;;;12.50;99.70;;;;;;4993000;28;20042;-76
2021/05/16 03:00:44;;;;;;;7.70;1.70;;;12.40;99.60;;;;;;4992862;28;20070;-75
2021/05/16 03:03:09;;;;;;;6.30;2.38;;;12.50;99.50;;;;;;4993066;28;20050;-74
2021/05/16 03:05:35;;;;;;;12.65;2.97;;;12.50;99.50;;;;;;4994321;28;20321;-76
2021/05/16 03:08:00;;;;;;;6.82;2.22;;;12.40;99.40;;;;;;4992693;28;20125;-76
2021/05/16 03:10:26;;;;;;;4.53;2.25;;;12.40;99.50;;;;;;4992759;28;20081;-76
2021/05/16 03:12:52;;;;;;;5.50;2.30;;;12.50;99.50;;;;;;4992660;28;20030;-75
2021/05/16 03:15:18;;;;;;;7.25;2.30;;;12.40;99.40;;;;;;4992597;28;20034;-76
2021/05/16 03:17:44;;;;;;;6.57;2.40;;;12.40;99.40;;;;;;4992572;28;20112;-75
2021/05/16 03:20:11;;;;;;;5.05;2.35;;;12.50;99.40;;;;;;4992316;28;20038;-75
2021/05/16 03:22:37;;;;;;;7.88;2.33;;;12.40;99.60;;;;;;4991740;28;20066;-75
2021/05/16 03:25:04;;;;;;;6.80;2.20;;;12.40;99.60;;;;;;4992049;28;20065;-75
2021/05/16 03:27:30;;;;;;;5.93;2.28;;;12.50;99.60;;;;;;4990659;28;20141;-76
2021/05/16 03:29:55;;;;;;;7.25;2.38;;;12.40;99.60;;;;;;4992109;28;20125;-74
2021/05/16 03:32:21;;;;;;;4.30;2.10;;;12.40;99.60;;;;;;4993606;28;20454;-75
2021/05/16 03:34:47;;;;;;;6.97;2.00;;;12.40;99.60;;;;;;4991679;28;20510;-76
2021/05/16 03:37:12;;;;;;;6.20;2.35;;;12.40;99.70;;;;;;4991537;28;20110;-75
2021/05/16 03:39:38;;;;;;;6.03;2.35;;;12.40;99.60;;;;;;4990956;28;20108;-75
2021/05/16 03:42:05;;;;;;;9.07;2.80;;;12.40;99.60;;;;;;4992087;28;20065;-75
2021/05/16 03:44:31;;;;;;;5.60;2.08;;;12.40;99.60;;;;;;4993329;28;20022;-75
2021/05/16 03:46:56;;;;;;;5.88;2.50;;;12.40;99.50;;;;;;4991630;28;20035;-75
2021/05/16 03:49:22;;;;;;;6.35;2.40;;;12.50;99.60;;;;;;4991754;28;20364;-76
2021/05/16 03:51:48;;;;;;;10.13;3.17;;;12.50;99.50;;;;;;4991753;28;20487;-75
2021/05/16 03:54:17;;;;;;;5.43;2.10;;;12.50;99.40;;;;;;4992026;28;20073;-75
2021/05/16 03:56:43;;;;;;;3.78;2.05;;;12.50;99.40;;;;;;4993185;28;20037;-76
2021/05/16 03:59:09;;;;;;;6.85;2.50;;;12.50;99.40;;;;;;4991598;28;20046;-75
2021/05/16 04:01:35;;;;;;;6.78;2.95;;;12.50;99.40;;;;;;4990598;28;20101;-75
2021/05/16 04:04:00;;;;;;;6.57;2.40;;;12.50;99.40;;;;;;4991364;28;20034;-76
2021/05/16 04:06:26;;;;;;;10.40;2.22;;;12.50;99.50;;;;;;4991307;28;20070;-76
2021/05/16 04:08:52;;;;;;;6.63;1.83;;;12.50;99.40;;;;;;4992976;28;20428;-75
2021/05/16 04:11:17;;;;;;;6.93;1.98;;;12.50;99.50;;;;;;4991204;28;20089;-74
2021/05/16 04:13:43;;;;;;;5.78;2.10;;;12.50;99.60;;;;;;4990445;28;20530;-75
2021/05/16 04:16:09;;;;;;;7.03;2.25;;;12.50;99.50;;;;;;4991713;28;20045;-76
2021/05/16 04:18:34;;;;;;;6.55;2.60;;;12.50;99.40;;;;;;4991504;28;20045;-76
2021/05/16 04:21:02;;;;;;;3.40;2.17;;;12.50;99.50;;;;;;4991260;28;20099;-76
2021/05/16 04:23:27;;;;;;;8.02;2.67;;;12.60;99.50;;;;;;4992522;28;20011;-76
2021/05/16 04:25:53;;;;;;;8.98;3.08;;;12.60;99.40;;;;;;4991159;28;20089;-74
2021/05/16 04:28:19;;;;;;;10.32;2.80;;;12.60;99.30;;;;;;4990942;28;20038;-76
2021/05/16 04:30:45;;;;;;;5.60;2.80;;;12.70;99.30;;;;;;4991078;28;20431;-77
2021/05/16 04:33:10;;;;;;;9.32;3.42;;;12.70;99.30;;;;;;4990829;28;20037;-76
2021/05/16 04:35:36;;;;;;;7.93;2.95;;;12.70;99.30;;;;;;4992840;28;20034;-75
2021/05/16 04:38:02;;;;;;;7.93;3.10;;;12.70;99.30;;;;;;4991198;28;20026;-75
2021/05/16 04:40:28;;;;;;;11.20;3.42;;;12.70;99.20;;;;;;4991196;28;20045;-76
2021/05/16 04:42:55;;;;;;;9.23;3.40;;;12.70;99.20;;;;;;4989952;28;20042;-76
2021/05/16 04:45:21;;;;;;;9.20;3.40;;;12.70;99.20;;;;;;4990825;28;20076;-74
2021/05/16 04:47:46;;;;;;;12.50;3.70;;;12.70;99.20;;;;;;4992561;28;20121;-75
2021/05/16 04:50:15;;;;;;;10.15;2.97;;;12.70;99.20;;;;;;4990847;28;20046;-74
2021/05/16 04:52:40;;;;;;;;;;;12.80;99.20;;;;;;4991204;28;20038;-75
2021/05/16 04:55:06;;;;;;;10.77;3.50;;;12.80;99.20;;;;;;4990438;28;19921;-75
2021/05/16 04:57:32;;;;;;;10.02;3.58;;;12.80;99.10;;;;;;4990509;28;20069;-77
2021/05/16 04:59:58;;;;;;;12.05;3.53;;;12.90;99.20;;;;;;4990224;28;20104;-75
2021/05/16 05:02:23;;;;;;;6.70;3.10;;;12.90;99.00;;;;;;4992255;28;20168;-76
2021/05/16 05:04:50;;;;;;;15.20;4.10;;;12.90;99.00;;;;;;4990533;28;20053;-76
2021/05/16 05:07:16;;;;;;;9.73;4.07;;;13.00;98.90;;;;;;4990572;28;20073;-75
2021/05/16 05:09:42;;;;;;;8.48;3.72;;;13.00;98.80;;;;;;4990748;28;20042;-75
2021/05/16 05:12:08;;;;;;;8.68;3.67;;;13.00;98.80;;;;;;4990715;28;20452;-77
2021/05/16 05:14:33;;;;;;;17.90;4.32;;;13.00;98.80;;;;;;4992362;28;20460;-77
2021/05/16 05:16:59;;;;;;;8.95;3.83;;;13.00;98.80;;;;;;4989165;28;20043;-78
2021/05/16 05:19:25;;;;;;;12.73;3.97;;;13.00;98.90;;;;;;4990377;28;20096;-76
2021/05/16 05:21:51;;;;;;;11.05;3.65;;;13.10;98.90;;;;;;4990386;28;20105;-77
2021/05/16 05:24:16;;;;;;;11.73;3.95;;;13.10;99.00;;;;;;4990265;28;20038;-76
2021/05/16 05:26:42;;;;;;;16.63;4.05;;;13.10;99.10;;;;;;4991706;28;20022;-74
2021/05/16 05:29:08;;;;;;;9.23;3.50;;;13.10;98.90;;;;;;4989994;28;20061;-75
2021/05/16 05:31:34;;;;;;;9.40;3.40;;;13.20;99.00;;;;;;4990059;28;20038;-75
2021/05/16 05:34:00;;;;;;;12.90;3.97;;;13.20;99.10;;;;;;4990187;28;20085;-75
2021/05/16 05:36:29;;;;;;;9.18;3.50;;;13.10;99.20;;;;;;4990137;28;20038;-75
2021/05/16 05:38:56;;;;;;;11.07;3.90;;;13.20;99.20;;;;;;4990632;28;20030;-74
2021/05/16 05:41:21;;;;;;;11.75;4.15;;;13.20;99.20;;;;;;4990504;28;20456;-73
2021/05/16 05:43:47;;;;;;;12.60;3.80;;;13.20;99.20;;;;;;4990144;28;20273;-74
2021/05/16 05:46:13;;;;;;;9.68;3.20;;;13.20;99.20;;;;;;4990483;28;20324;-76
2021/05/16 05:48:39;;;;;;;7.47;3.60;;;13.20;99.20;;;;;;4990004;28;20042;-76
2021/05/16 05:51:05;;;;;;;11.05;3.55;;;13.10;99.10;;;;;;4989805;28;20102;-76
2021/05/16 05:53:31;;;;;;;14.20;3.67;;;13.10;99.10;;;;;;4990587;28;20110;-77
2021/05/16 05:55:56;;;;;;;11.00;4.35;;;13.10;99.30;;;;;;4988821;28;20133;-75
2021/05/16 05:58:22;;;;;;;13.00;4.13;;;13.10;99.40;;;;;;4990324;28;20058;-76
2021/05/16 06:00:48;;;;;;;14.35;3.67;;;13.00;99.60;;;;;;4992732;28;20045;-76
2021/05/16 06:03:13;;;;;;;11.02;3.90;;;13.10;99.70;;;;;;4993998;28;20041;-76
2021/05/16 06:05:39;;;;;;;15.52;4.32;;;13.10;99.90;;;;;;4995386;28;20733;-77
2021/05/16 06:08:05;;;;;;;8.55;3.88;;;13.10;99.90;;;;;;4993800;28;20034;-77
2021/05/16 06:10:31;;;;;;;12.35;4.18;;;13.10;99.90;;;;;;4993817;28;20030;-77
2021/05/16 06:12:56;;;;;;;17.75;4.57;;;13.20;99.90;;;;;;4993733;28;20040;-77
2021/05/16 06:15:24;;;;;;;15.63;4.00;;;13.20;99.80;;;;;;4993728;28;20088;-78
2021/05/16 06:17:50;;;;;;;13.80;5.70;;;13.30;99.90;;;;;;4995175;28;20027;-76
2021/05/16 06:20:16;;;;;;;12.02;4.20;;;13.20;99.60;;;;;;4993241;28;20970;-73
2021/05/16 06:22:41;;;;;;;11.25;3.70;;;13.30;99.70;;;;;;4993636;28;20030;-73
2021/05/16 06:25:07;;;;;;;12.23;4.22;;;13.40;99.40;;;;;;4993047;28;20038;-75
2021/05/16 06:27:33;;;;;;;9.90;3.80;;;13.40;99.30;;;;;;4993162;28;20468;-73
2021/05/16 06:29:59;;;;;;;12.60;4.00;;;13.50;99.20;;;;;;4992210;28;20070;-74
2021/05/16 06:32:24;;;;;;;12.40;3.50;;;13.50;99.10;;;;;;4994871;28;20023;-74
2021/05/16 06:34:51;;;;;;;12.88;4.45;;;13.50;98.90;;;;;;4993147;28;20038;-75
2021/05/16 06:37:16;;;;;;;11.65;3.45;;;13.60;98.70;;;;;;4993108;28;20097;-73
2021/05/16 06:39:42;;;;;;;17.23;3.88;;;13.70;98.50;;;;;;4993417;28;20050;-74
2021/05/16 06:42:08;;;;;;;16.17;3.45;;;13.70;98.10;;;;;;4992115;28;20030;-73
2021/05/16 06:44:33;;;;;;;13.88;3.33;;;13.70;97.80;;;;;;4994778;28;20033;-72
2021/05/16 06:46:59;;;;;;;14.13;3.03;;;13.80;97.90;;;;;;4992961;28;20120;-72
2021/05/16 06:49:24;;;;;;;12.45;2.83;;;13.80;97.80;;;;;;4993027;28;20022;-73
2021/05/16 06:51:50;;;;;;;14.60;3.30;;;14.00;97.70;;;;;;4992928;28;20030;-72
2021/05/16 06:54:16;;;;;;;14.85;3.17;;;14.10;97.50;;;;;;4992096;28;20073;-73
2021/05/16 06:56:41;;;;;;;13.18;3.10;;;14.00;97.00;;;;;;4994352;28;20156;-72
2021/05/16 06:59:07;;;;;;;21.63;3.28;;;14.10;97.20;;;;;;4992693;28;20042;-72
2021/05/16 07:01:33;;;;;;;18.02;4.35;;;14.20;97.20;;;;;;4992850;28;20037;-73
2021/05/16 07:03:59;;;;;;;18.85;3.03;;;14.20;97.20;;;;;;4992346;28;20042;-75
2021/05/16 07:06:25;;;;;;;16.95;3.60;;;14.10;97.10;;;;;;4993202;28;20039;-90
2021/05/16 07:08:52;;;;;;;14.13;3.45;;;14.10;97.00;;;;;;4994782;28;20088;-83
2021/05/16 07:11:18;;;;;;;12.90;2.88;;;14.10;97.00;;;;;;4991613;28;20120;-87
2021/05/16 07:13:43;;;;;;;14.90;3.28;;;14.10;96.70;;;;;;4992912;28;20081;-85
2021/05/16 07:16:09;;;;;;;9.95;3.25;;;14.30;96.90;;;;;;4992982;28;20057;-80
2021/05/16 07:18:35;;;;;;;18.38;2.90;;;14.30;96.50;;;;;;4994735;28;20039;-81
2021/05/16 07:21:00;;;;;;;19.05;3.90;;;14.30;96.30;;;;;;4995546;28;20112;-82
2021/05/16 07:23:26;;;;;;;15.05;3.13;;;14.30;96.10;;;;;;4996339;28;20015;-79
2021/05/16 07:25:52;;;;;;;12.80;3.47;;;14.30;96.00;;;;;;4995134;28;20366;-83
2021/05/16 07:28:18;;;;;;;13.02;3.42;;;14.30;95.90;;;;;;4993950;28;20030;-82
2021/05/16 07:30:43;;;;;;;13.38;3.63;;;14.30;95.50;;;;;;4993223;28;20077;-84
2021/05/16 07:33:10;;;;;;;21.80;3.85;;;14.30;95.60;;;;;;4992034;28;20368;-87
2021/05/16 07:35:37;;;;;;;18.65;3.50;;;14.30;95.20;;;;;;4994271;28;20050;-83
2021/05/16 07:38:04;;;;;;;15.13;3.67;;;14.30;95.20;;;;;;4992283;28;20134;-88
2021/05/16 07:40:29;;;;;;;12.85;2.72;;;14.20;95.20;;;;;;4991668;28;20192;-83
2021/05/16 07:42:55;;;;;;;23.45;4.75;;;14.30;95.30;;;;;;4992326;28;20101;-78
2021/05/16 07:45:25;;;;;;;13.48;4.10;;;14.30;95.10;;;;;;4990948;28;20026;-80
2021/05/16 07:47:50;;;;;;;18.05;4.95;;;14.20;95.10;;;;;;4993532;28;20532;-74
2021/05/16 07:50:16;;;;;;;17.83;3.95;;;14.10;95.10;;;;;;4991894;28;20043;-76
2021/05/16 07:52:42;;;;;;;18.13;4.90;;;14.00;95.30;;;;;;4991869;28;20039;-78
2021/05/16 07:55:08;;;;;;;21.92;5.10;;;14.00;95.30;;;;;;4992276;28;20117;-76
2021/05/16 07:57:35;;;;;;;15.40;4.68;;;14.00;95.20;;;;;;4992004;28;20117;-76
2021/05/16 08:00:01;;;;;;;18.65;5.47;;;13.90;95.30;;;;;;4991762;28;20052;-75
2021/05/16 08:02:27;;;;;;;18.85;5.32;;;14.00;95.20;;;;;;4993883;28;20080;-75
2021/05/16 08:04:52;;;;;;;18.17;5.45;;;14.00;95.20;;;;;;4991699;28;20423;-75
2021/05/16 08:07:18;;;;;;;18.15;5.25;;;14.10;95.40;;;;;;4990669;28;20053;-74
2021/05/16 08:09:44;;;;;;;14.30;5.07;;;14.10;95.10;;;;;;4991748;28;20372;-74
2021/05/16 08:12:10;;;;;;;16.33;5.28;;;14.20;95.10;;;;;;4990964;28;20033;-77
2021/05/16 08:14:36;;;;;;;19.52;5.13;;;14.30;95.10;;;;;;4992015;28;20184;-75
2021/05/16 08:17:04;;;;;;;22.05;5.50;;;14.40;94.80;;;;;;4991769;28;20397;-76
2021/05/16 08:19:30;;;;;;;24.25;5.55;;;14.50;94.90;;;;;;4991522;28;20369;-76
2021/05/16 08:21:56;;;;;;;18.50;4.55;;;14.40;94.60;;;;;;4990952;28;20049;-73
2021/05/16 08:24:21;;;;;;;17.45;5.28;;;14.50;94.70;;;;;;4989979;28;20049;-76
2021/05/16 08:26:47;;;;;;;18.42;4.60;;;14.30;94.60;;;;;;4992597;28;20030;-73
2021/05/16 08:29:12;;;;;;;19.20;4.28;;;14.40;94.60;;;;;;4991301;28;20054;-77
2021/05/16 08:31:38;;;;;;;15.35;4.35;;;14.50;94.20;;;;;;4991319;28;20034;-76
2021/05/16 08:34:05;;;;;;;15.57;3.88;;;14.60;94.40;;;;;;4991341;28;20062;-76
2021/05/16 08:36:35;;;;;;;15.30;4.00;;;14.70;94.40;;;;;;4991273;28;20046;-76
2021/05/16 08:39:02;;;;;;;22.15;4.88;;;14.70;94.40;;;;;;4985184;28;20678;-78
2021/05/16 08:41:28;;;;;;;17.15;4.07;;;14.80;94.30;;;;;;4971857;28;20029;-76
2021/05/16 08:43:54;;;;;;;12.05;4.28;;;15.00;94.20;;;;;;4971652;28;20377;-75
2021/05/16 08:46:21;;;;;;;14.05;3.20;;;15.20;94.20;;;;;;4971854;28;20035;-74
2021/05/16 08:48:46;;;;;;;16.25;3.58;;;15.30;93.50;;;;;;4971972;28;20528;-75
2021/05/16 08:51:15;;;;;;;17.70;4.05;;;15.30;93.00;;;;;;4971359;28;20034;-77
2021/05/16 08:53:41;;;;;;;;;;;15.20;93.40;;;;;;4972415;28;20511;-79
2021/05/16 08:56:07;;;;;;;13.77;3.85;;;15.30;93.20;;;;;;4971569;28;19910;-77
2021/05/16 08:58:33;;;;;;;15.50;3.05;;;15.30;93.30;;;;;;4971137;28;20503;-77
2021/05/16 09:00:59;;;;;;;17.08;3.38;;;15.50;93.10;;;;;;4971460;28;20129;-75
2021/05/16 09:03:25;;;;;;;13.63;3.05;;;15.30;92.60;;;;;;4971575;28;20467;-76
2021/05/16 09:05:53;;;;;;;17.50;3.33;;;15.50;93.10;;;;;;4972793;28;20027;-75
2021/05/16 09:08:21;;;;;;;18.17;3.38;;;16.30;92.70;;;;;;4970132;28;20126;-75
2021/05/16 09:10:50;;;;;;;11.18;2.20;;;16.90;92.10;;;;;;4971236;28;20046;-75
2021/05/16 09:13:21;;;;;;;7.13;2.53;;;17.50;90.80;;;;;;4971245;28;20039;-77
2021/05/16 09:16:02;;;;;;;13.65;3.13;;;18.10;90.10;;;;;;4970317;28;20365;-74
2021/05/16 09:18:33;;;;;;;15.13;2.45;;;18.80;88.30;;;;;;4971422;28;20018;-72
2021/05/16 09:21:22;;;;;;;15.52;2.92;;;18.90;84.70;;;;;;4971067;28;20030;-74
2021/05/16 09:24:04;;;;;;;10.02;3.22;;;18.40;84.70;;;;;;4972311;28;20480;-75
2021/05/16 09:26:35;;;;;;;13.55;3.33;;;18.10;84.80;;;;;;4971398;28;20046;-75
2021/05/16 09:29:29;;;;;;;7.72;2.28;;;18.10;85.90;;;;;;4966558;28;20051;-73
2021/05/16 09:31:56;;;;;;;11.43;2.83;;;18.90;84.60;;;;;;4967550;28;20070;-74
2021/05/16 09:34:22;;;;;;;12.38;2.67;;;18.70;83.60;;;;;;4970488;28;20155;-73
2021/05/16 09:36:49;;;;;;;11.13;2.70;;;18.60;83.60;;;;;;4970914;28;20363;-74
2021/05/16 09:39:19;;;;;;;11.45;2.45;;;18.60;83.80;;;;;;4970091;28;20334;-72
2021/05/16 09:41:54;;;;;;;14.65;3.28;;;18.40;82.80;;;;;;4971176;28;20031;-72
2021/05/16 09:44:34;;;;;;;10.57;1.92;;;18.20;83.30;;;;;;4970989;28;20413;-73
2021/05/16 09:47:28;;;;;;;15.32;2.47;;;18.40;83.80;;;;;;4970904;28;20042;-72
2021/05/16 09:49:58;;;;;;;7.40;2.03;;;18.20;83.30;;;;;;4971202;28;20499;-77
2021/05/16 09:52:31;;;;;;;15.15;2.35;;;18.40;82.90;;;;;;4971251;28;20043;-85
2021/05/16 09:55:00;;;;;;;8.20;1.55;;;18.90;83.40;;;;;;4971157;28;20457;-75
2021/05/16 09:57:30;;;;;;;9.38;1.85;;;18.70;81.00;;;;;;4970904;28;20031;-83
2021/05/16 09:59:56;;;;;;;11.98;2.08;;;19.10;82.20;;;;;;4973397;28;20393;-89
2021/05/16 10:02:27;;;;;;;11.15;1.95;;;19.00;79.80;;;;;;4972268;28;20035;-87
2021/05/16 10:05:01;;;;;;;11.00;1.90;;;19.30;80.80;;;;;;4971522;28;20038;-78
2021/05/16 10:07:29;;;;;;;9.40;1.70;;;19.20;78.90;;;;;;4970852;28;20035;-73
2021/05/16 10:09:56;;;;;;;7.57;1.92;;;19.20;77.80;;;;;;4970830;28;20034;-75
2021/05/16 10:12:23;;;;;;;6.35;1.80;;;19.10;77.80;;;;;;4967419;28;20469;-75
2021/05/16 10:14:54;;;;;;;14.23;2.17;;;18.90;77.10;;;;;;4953179;28;20051;-82
2021/05/16 10:17:21;;;;;;;9.55;1.70;;;18.80;78.90;;;;;;4971727;28;20047;-78
2021/05/16 10:19:49;;;;;;;11.73;2.40;;;18.70;79.50;;;;;;4970390;28;20054;-84
2021/05/16 10:22:17;;;;;;;11.75;1.48;;;19.00;80.00;;;;;;4972337;28;20039;-77
2021/05/16 10:24:50;;;;;;;;;;;19.10;79.20;;;;;;4973208;28;20061;-80
2021/05/16 10:27:40;;;;;;;6.95;1.50;;;19.30;79.60;;;;;;4971451;28;19922;-76
2021/05/16 10:30:07;;;;;;;7.28;2.40;;;19.00;77.60;;;;;;4970302;28;20054;-76
2021/05/16 10:32:37;;;;;;;11.02;2.30;;;19.10;78.80;;;;;;4972293;28;20026;-76
2021/05/16 10:35:11;;;;;;;9.95;2.15;;;18.80;76.40;;;;;;4953843;28;20130;-80
2021/05/16 10:37:42;;;;;;;10.63;2.15;;;18.80;77.70;;;;;;4964471;28;20035;-78
2021/05/16 10:40:20;;;;;;;7.32;2.25;;;19.10;78.00;;;;;;4969790;28;20509;-73
2021/05/16 10:42:47;;;;;;;9.73;1.70;;;19.30;77.00;;;;;;4970608;28;20101;-70
2021/05/16 10:45:37;;;;;;;6.10;1.60;;;19.30;77.10;;;;;;4972000;28;20031;-69
2021/05/16 10:48:10;;;;;;;9.25;1.60;;;19.40;76.70;;;;;;4974141;28;20037;-70
2021/05/16 10:50:41;;;;;;;8.77;1.40;;;19.40;74.70;;;;;;4976341;28;20019;-70
2021/05/16 10:53:17;;;;;;;8.02;1.95;;;19.10;75.60;;;;;;4973511;28;20114;-68
2021/05/16 10:56:12;;;;;;;9.32;2.10;;;19.00;76.30;;;;;;4973652;28;20034;-74
2021/05/16 10:58:39;;;;;;;8.73;1.88;;;19.20;75.70;;;;;;4973762;28;20035;-77
2021/05/16 11:01:29;;;;;;;8.55;1.65;;;19.20;75.20;;;;;;4963372;28;20030;-71
2021/05/16 11:03:57;;;;;;;10.63;1.63;;;18.90;74.70;;;;;;4970199;28;20035;-71
2021/05/16 11:06:38;;;;;;;7.90;1.60;;;18.70;75.40;;;;;;4960022;28;20039;-72
2021/05/16 11:09:04;;;;;;;8.13;1.55;;;18.60;75.70;;;;;;4972890;28;20043;-75
2021/05/16 11:11:50;;;;;;;12.35;2.22;;;18.40;75.80;;;;;;4976007;28;20746;-70
2021/05/16 11:14:18;;;;;;;10.95;2.20;;;18.20;75.80;;;;;;4989854;28;20089;-72
2021/05/16 11:16:48;;;;;;;9.60;1.75;;;18.40;76.40;;;;;;4974643;28;20038;-69
2021/05/16 11:19:14;;;;;;;8.75;1.80;;;18.30;76.30;;;;;;4974433;28;20452;-71
2021/05/16 11:21:40;;;;;;;6.65;1.35;;;18.50;77.40;;;;;;4967349;28;20094;-70
2021/05/16 11:24:06;;;;;;;6.50;1.38;;;18.50;75.80;;;;;;4957168;28;20023;-70
2021/05/16 11:26:32;;;;;;;8.50;1.30;;;18.60;74.90;;;;;;4975703;28;20077;-70
2021/05/16 11:28:59;;;;;;;10.93;1.58;;;18.90;75.40;;;;;;4974304;28;20487;-71
2021/05/16 11:31:28;;;;;;;7.60;1.52;;;18.90;73.60;;;;;;4973719;28;20030;-69
2021/05/16 11:34:05;;;;;;;8.45;1.52;;;18.90;73.00;;;;;;4974119;28;20123;-71
2021/05/16 11:36:36;;;;;;;7.72;1.48;;;18.90;73.90;;;;;;4974248;28;20057;-71
2021/05/16 11:39:06;;;;;;;4.88;1.48;;;18.90;72.60;;;;;;4972434;28;20035;-71
2021/05/16 11:41:38;;;;;;;5.63;1.33;;;19.10;73.10;;;;;;4975355;28;20019;-70
2021/05/16 11:44:11;;;;;;;6.55;1.30;;;18.90;70.80;;;;;;4973878;28;20118;-70
2021/05/16 11:46:42;;;;;;;11.13;1.50;;;19.10;71.40;;;;;;4973886;28;20054;-69
2021/05/16 11:49:09;;;;;;;2.85;1.10;;;19.20;70.30;;;;;;4974166;28;20089;-69
2021/05/16 11:51:35;;;;;;;6.63;1.07;;;19.10;69.30;;;;;;4972806;28;20045;-69
2021/05/16 11:54:11;;;;;;;3.88;1.50;;;19.10;71.10;;;;;;4973315;28;20041;-71
2021/05/16 11:56:41;;;;;;;9.23;1.83;;;19.10;70.70;;;;;;4975137;28;20057;-68
2021/05/16 11:59:07;;;;;;;9.55;1.83;;;19.10;70.60;;;;;;4973381;28;20089;-69
2021/05/16 12:01:41;;;;;;;8.15;1.20;;;18.90;71.60;;;;;;4973667;28;20075;-70
2021/05/16 12:04:16;;;;;;;9.43;1.70;;;18.90;72.20;;;;;;4973651;28;20098;-68
2021/05/16 12:06:51;;;;;;;9.05;2.05;;;18.40;72.40;;;;;;4973152;28;20058;-68
2021/05/16 12:09:25;;;;;;;9.30;1.77;;;18.50;73.70;;;;;;4972219;28;20050;-73
2021/05/16 12:11:53;;;;;;;6.35;1.83;;;18.40;74.00;;;;;;4973649;28;20042;-73
2021/05/16 12:14:30;;;;;;;5.35;1.67;;;18.00;75.00;;;;;;4975021;28;20023;-71
2021/05/16 12:17:01;;;;;;;4.32;1.02;;;17.60;75.60;;;;;;4973233;28;20118;-73
2021/05/16 12:19:33;;;;;;;4.68;1.27;;;17.30;77.00;;;;;;4973498;28;20051;-73
2021/05/16 12:22:01;;;;;;;7.10;1.58;;;17.30;81.00;;;;;;4973117;28;20035;-73
2021/05/16 12:24:30;;;;;;;12.55;3.92;;;16.90;82.20;;;;;;4973193;28;20093;-72
2021/05/16 12:26:56;;;;;;;11.38;4.20;;;16.80;83.70;;;;;;4973354;28;20470;-72
2021/05/16 12:29:23;;;;;;;11.85;2.25;;;16.80;85.20;;;;;;4974716;28;20046;-71
2021/05/16 12:31:49;;;;;;;4.38;1.15;;;16.50;88.40;;;;;;4973318;28;20039;-71
2021/05/16 12:34:16;;;;;;;8.30;1.80;;;16.60;90.20;;;;;;4973012;28;20046;-84
2021/05/16 12:36:55;;;;;;;7.93;1.10;;;16.70;90.60;;;;;;4972977;28;20102;-71
2021/05/16 12:39:34;;;;;;;5.60;1.83;;;16.80;91.20;;;;;;4973027;28;20070;-74
2021/05/16 12:42:00;;;;;;;8.40;1.75;;;17.00;90.90;;;;;;4971384;28;20168;-75
2021/05/16 12:44:26;;;;;;;9.25;1.92;;;17.10;90.30;;;;;;4954029;29;20082;-73
2021/05/16 12:46:53;;;;;;;14.25;1.75;;;17.30;90.70;;;;;;4969790;28;20408;-71